Voorhees, New Jersey
Current Conditions -  °F | °C
As of 8:54 PM on Monday 24 Nov 2014 (Local Time) from KVAY Reporting Station
Clear Clear  
Wind Chill: 64°   Ceiling: Unl
Heat Index: 64°   Visibility: 10mi
Dew Point: 58°   Wind: 7mph
Humidity: 80%   Direction: NA
Pressure: 29.73"   Gusts: 22mph
Location:  39.85°N, 74.96°W
Report Text: KVAY 250154Z AUTO VRB06G19KT 10SM CLR 18/14 A2973 RMK AO2 SLP068 T01780144
Loading
Personal Weather Stations






























Interactive Weather Map New forecast layout! Learn more

10-Day Weather Forecast

Advertisements
Track Severe Weather on mobile